ジャカルタ の空港の天気 - METARとTAF

スカルノハッタ国際空港 ( WIII / CGK ) - インドネシア バンテン州、Cengkareng ( ジャカルタ近郊)
飛行場実況気象(Metar)
観測時間10/20 11:00 WIB (10/20 04:00 UTC)
風向・風速不定 2m/s
視程10km以上
天気現象
全天の4割程度の雲 雲底高度 610m
気温32℃
湿度56%
気圧1010hPa
METARWIII 200400Z VRB03KT 9999 SCT020 32/22 Q1010 NOSIG
過去の天気等 Google飛行場航空写真 Wunderground天気予報

過去48時間のMETAR

飛行場予報(TAF)
発表時間: 10/20 06:00 WIB (10/19 23:00 UTC)
予報対象時間: 20日7時 WIB ~ 21日13時 WIB
風向・風速南南西 3m/s
視程5000m
天気現象煙霧
少しの雲 雲底高度 610m
20日8時 WIB ~ 20日10時 WIB に徐々に
風向・風速北東 5m/s
視程9000m
天気現象運行に影響にある天気現象が終了
TAF WIII 192300Z 2000/2106 20005KT 5000 HZ FEW020
BECMG 2001/2003 04010KT 9000 NSW